Sapporo, Japan

6:19 PM JST on September 20, 2017 (GMT +0900)
札幌市 | | Change Station

Elev 0 ft 43.07 °N, 141.35 °E | Updated 4 seconds ago

Rain
Rain
66.6 °F
Feels Like 66.6 °F
N
0.6
Wind Variable Wind from North
Gusts 3.7 mph

Today
High -- | Low -- °F
--% Chance of Precip.
Yesterday
High -- | Low -- °F
Precip. -- in
Pressure 29.59 in
Visibility 6.2 miles
Clouds Few 1000 ft
Scattered Clouds 6000 ft
Mostly Cloudy 10000 ft
Dew Point 58 °F
Humidity 74%
Rainfall 0.12 in
Snow Depth Not available.
5:19 AM 5:36 PM
New Moon, 0% visible
METAR RJCC 200900Z 20007KT 170V230 9999 -SHRA FEW010 SCT060 BKN100 17/16 Q1002 RMK 1ST010 4CU060 7AC100 A2960
Pressure 29.59 in
Visibility 6.2 miles
Clouds Few 1000 ft
Scattered Clouds 6000 ft
Mostly Cloudy 10000 ft
Dew Point 58 °F
Humidity 74%
Rainfall 0.12 in
Snow Depth Not available.
5:19 AM 5:36 PM
New Moon, 0% visible
METAR RJCC 200900Z 20007KT 170V230 9999 -SHRA FEW010 SCT060 BKN100 17/16 Q1002 RMK 1ST010 4CU060 7AC100 A2960

Get Severe Weather Alerts

Thanks for signing up!

Be on the lookout for a verification email in your inbox.

You'll start receiving the daily forecast at 6 AM.

×

10-Day Weather Forecast

No radar image for this location.
×

Almanac

Astronomy

Sep. 20, 2017 Rise Set
Actual Time
Civil Twilight
Nautical Twilight
Astronomical Twilight
Moon
Length of Visible Light
Length of Day
Tomorrow will be .
, % of the Moon is Illuminated

Today's Extremes

Country Highs Country Lows

Community

WunderPhotos

Category 6

Welcome to Category 6. This is the collective home for Weather Underground's featured writeups by Dr. Jeff Masters (right), Bob Henson (left), Chris Burt, and other regular contributors.

Nearby

Air Quality

  Air Quality AQ Index Pollutant
Not available.

Snow Depth

Station Depth Elevation

Earthquake Activity

City Distance Mag. Time & Date
Minimum magnitude displayed is 2.5.

Coastal Water Temperatures

Place Temperature

Stations

Nearby Weather Stations

Station Location Temp. Windchill Dew Point Humidity Wind Precip. Elev Updated Type